createdAt,value
2022-08-09T00:01:54.071Z,20.15
2022-08-09T00:05:03.068Z,20.10
2022-08-09T00:08:32.297Z,20.09
2022-08-09T00:12:03.920Z,20.11
2022-08-09T00:14:58.536Z,20.15
2022-08-09T00:18:11.506Z,20.19
2022-08-09T00:21:15.053Z,20.22
2022-08-09T00:24:20.900Z,20.25
2022-08-09T00:27:23.752Z,20.25
2022-08-09T00:30:30.679Z,20.15
2022-08-09T00:33:50.610Z,20.03
2022-08-09T00:36:54.478Z,20.02
2022-08-09T00:40:09.818Z,19.95
2022-08-09T00:44:16.261Z,19.90
2022-08-09T00:46:56.622Z,19.96
2022-08-09T00:50:05.399Z,20.01
2022-08-09T00:53:11.672Z,20.03
2022-08-09T00:56:16.808Z,20.07
2022-08-09T00:59:40.558Z,20.05
2022-08-09T01:02:48.651Z,20.11
2022-08-09T01:05:58.460Z,20.13
2022-08-09T01:09:36.786Z,20.15
2022-08-09T01:12:48.291Z,20.03
2022-08-09T01:15:56.358Z,19.89
2022-08-09T01:19:04.745Z,19.89
2022-08-09T01:22:40.902Z,19.90
2022-08-09T01:26:02.142Z,19.91
2022-08-09T01:29:08.078Z,19.90
2022-08-09T01:32:29.925Z,19.87
2022-08-09T01:35:42.129Z,19.88
2022-08-09T01:38:48.448Z,19.86
2022-08-09T01:41:53.385Z,19.87
2022-08-09T01:45:01.637Z,19.85
2022-08-09T01:48:06.878Z,19.80
2022-08-09T01:51:11.988Z,19.77
2022-08-09T01:54:32.777Z,19.64
2022-08-09T01:57:40.335Z,19.68
2022-08-09T02:00:51.383Z,19.68
2022-08-09T02:03:57.584Z,19.68
2022-08-09T02:07:15.364Z,19.57
2022-08-09T02:10:28.585Z,19.54
2022-08-09T02:13:40.393Z,19.51
2022-08-09T02:16:59.729Z,19.45
2022-08-09T02:20:09.160Z,19.40
2022-08-09T02:23:16.924Z,19.39
2022-08-09T02:26:27.009Z,19.34
2022-08-09T02:29:34.883Z,19.39
2022-08-09T02:32:44.865Z,19.44
2022-08-09T02:36:03.385Z,19.41
2022-08-09T02:39:14.284Z,19.41
2022-08-09T02:42:29.113Z,19.47
2022-08-09T02:45:35.674Z,19.48
2022-08-09T02:48:46.178Z,19.48
2022-08-09T02:51:54.617Z,19.39
2022-08-09T02:55:00.061Z,19.46
2022-08-09T02:58:32.926Z,19.50
2022-08-09T03:02:05.117Z,19.51
2022-08-09T03:04:58.045Z,19.49
2022-08-09T03:08:05.965Z,19.44
2022-08-09T03:11:10.267Z,19.49
2022-08-09T03:14:14.508Z,19.54
2022-08-09T03:17:26.353Z,19.50
2022-08-09T03:20:32.330Z,19.51
2022-08-09T03:23:35.880Z,19.48
2022-08-09T03:26:45.043Z,19.50
2022-08-09T03:29:58.211Z,19.54
2022-08-09T03:33:17.518Z,19.53
2022-08-09T03:36:27.748Z,19.54
2022-08-09T03:39:37.902Z,19.54
2022-08-09T03:42:43.201Z,19.60
2022-08-09T03:46:04.649Z,19.54
2022-08-09T03:49:10.419Z,19.52
2022-08-09T03:52:17.673Z,19.51
2022-08-09T03:55:21.349Z,19.48
2022-08-09T03:58:26.189Z,19.51
2022-08-09T04:01:32.028Z,19.50
2022-08-09T04:04:38.794Z,19.44
2022-08-09T04:07:52.934Z,19.40
2022-08-09T04:11:01.465Z,19.45
2022-08-09T04:14:59.143Z,19.51
2022-08-09T04:17:29.569Z,19.49
2022-08-09T04:20:32.961Z,19.48
2022-08-09T04:23:38.098Z,19.45
2022-08-09T04:26:42.515Z,19.46
2022-08-09T04:29:50.091Z,19.49
2022-08-09T04:32:54.197Z,19.45
2022-08-09T04:35:57.071Z,19.45
2022-08-09T04:39:03.591Z,19.48
2022-08-09T04:42:09.318Z,19.48
2022-08-09T04:45:12.775Z,19.53
2022-08-09T04:48:15.952Z,19.49
2022-08-09T04:51:18.632Z,19.38
2022-08-09T04:54:24.475Z,19.39
2022-08-09T04:57:54.432Z,19.40
2022-08-09T05:00:50.577Z,19.44
2022-08-09T05:03:58.670Z,19.53
2022-08-09T05:07:01.503Z,19.57
2022-08-09T05:10:06.341Z,19.62
2022-08-09T05:13:10.798Z,19.66
2022-08-09T05:16:15.067Z,19.68
2022-08-09T05:19:24.482Z,19.69
2022-08-09T05:22:35.819Z,19.72
2022-08-09T05:25:53.393Z,19.70
2022-08-09T05:28:59.626Z,19.78
2022-08-09T05:32:05.876Z,19.85
2022-08-09T05:35:09.613Z,20.03
2022-08-09T05:38:12.421Z,20.08
2022-08-09T05:41:26.159Z,20.06
2022-08-09T05:44:32.626Z,20.07
2022-08-09T05:47:35.842Z,20.03
2022-08-09T05:51:16.957Z,20.17
2022-08-09T05:54:17.995Z,20.28
2022-08-09T05:57:50.365Z,20.41
2022-08-09T06:00:44.827Z,20.58
2022-08-09T06:03:58.474Z,20.56
2022-08-09T06:07:01.586Z,20.73
2022-08-09T06:10:05.799Z,20.78
2022-08-09T06:13:18.959Z,20.84
2022-08-09T06:16:23.721Z,21.05
2022-08-09T06:19:27.494Z,21.17
2022-08-09T06:22:30.550Z,21.24
2022-08-09T06:25:33.263Z,21.26
2022-08-09T06:28:38.541Z,21.33
2022-08-09T06:32:17.224Z,21.45
2022-08-09T06:35:10.081Z,21.62
2022-08-09T06:38:12.887Z,21.65
2022-08-09T06:41:20.463Z,21.79
2022-08-09T06:44:24.768Z,22.07
2022-08-09T06:47:39.498Z,22.22
2022-08-09T06:50:42.845Z,22.40
2022-08-09T06:53:46.052Z,22.39
2022-08-09T06:56:52.579Z,22.42
2022-08-09T07:00:48.791Z,22.65
2022-08-09T07:03:19.520Z,22.81
2022-08-09T07:06:31.539Z,23.32
2022-08-09T07:09:57.142Z,23.37
2022-08-09T07:12:57.914Z,23.49
2022-08-09T07:16:41.037Z,23.83
2022-08-09T07:19:25.297Z,23.89
2022-08-09T07:22:42.242Z,24.15
2022-08-09T07:25:52.437Z,24.17
2022-08-09T07:29:09.112Z,24.85
2022-08-09T07:32:16.335Z,25.59
2022-08-09T07:35:19.839Z,25.92
2022-08-09T07:38:23.724Z,25.68
2022-08-09T07:41:38.868Z,25.41
2022-08-09T07:44:51.649Z,25.93
2022-08-09T07:48:04.484Z,26.82
2022-08-09T07:52:02.861Z,27.04
2022-08-09T07:54:31.869Z,27.73
2022-08-09T07:57:35.870Z,27.76
2022-08-09T08:00:55.494Z,28.09
2022-08-09T08:04:03.972Z,28.19
2022-08-09T08:08:06.766Z,28.74
2022-08-09T08:10:37.209Z,29.01
2022-08-09T08:13:55.930Z,29.43
2022-08-09T08:17:07.717Z,29.08
2022-08-09T08:20:13.756Z,28.66
2022-08-09T08:23:17.816Z,29.12
2022-08-09T08:26:26.692Z,29.27
2022-08-09T08:29:45.249Z,29.52
2022-08-09T08:32:53.919Z,29.94
2022-08-09T08:36:00.173Z,30.22
2022-08-09T08:39:04.751Z,30.06
2022-08-09T08:42:07.692Z,30.23
2022-08-09T08:45:13.298Z,30.62
2022-08-09T08:48:19.563Z,30.78
2022-08-09T08:51:24.601Z,30.41
2022-08-09T08:54:28.130Z,30.16
2022-08-09T08:57:34.754Z,30.96
2022-08-09T09:00:38.851Z,30.94
2022-08-09T09:03:43.665Z,31.08
2022-08-09T09:06:50.086Z,31.23
2022-08-09T09:10:02.533Z,31.69
2022-08-09T09:13:09.445Z,31.34
2022-08-09T09:16:14.211Z,31.80
2022-08-09T09:22:56.379Z,31.79
2022-08-09T09:26:01.716Z,32.07
2022-08-09T09:29:16.779Z,31.92
2022-08-09T09:32:32.423Z,32.12
2022-08-09T09:36:00.611Z,32.02
2022-08-09T09:39:10.161Z,32.33
2022-08-09T09:42:26.274Z,32.65
2022-08-09T09:45:29.461Z,32.09
2022-08-09T09:48:33.697Z,32.39
2022-08-09T09:51:40.308Z,32.58
2022-08-09T09:54:48.801Z,32.09
2022-08-09T09:58:02.347Z,32.54
2022-08-09T10:01:30.256Z,32.42
2022-08-09T10:04:41.337Z,32.70
2022-08-09T10:08:10.705Z,32.15
2022-08-09T10:11:54.045Z,32.83
2022-08-09T10:14:43.928Z,32.98
2022-08-09T10:17:56.370Z,33.33
2022-08-09T10:21:07.872Z,33.19
2022-08-09T10:24:15.952Z,33.22
2022-08-09T10:27:34.520Z,31.85
2022-08-09T10:32:27.895Z,31.14
2022-08-09T10:34:11.399Z,30.38
2022-08-09T10:37:27.858Z,29.92
2022-08-09T10:40:41.155Z,29.94
2022-08-09T10:44:00.070Z,29.81
2022-08-09T10:48:26.552Z,29.42
2022-08-09T10:51:09.359Z,29.34
2022-08-09T10:54:13.764Z,31.04
2022-08-09T10:57:16.875Z,31.90
2022-08-09T11:03:03.105Z,32.75
2022-08-09T11:04:31.170Z,33.67
2022-08-09T11:07:57.725Z,34.05
2022-08-09T11:11:00.559Z,33.90
2022-08-09T11:14:31.927Z,33.25
2022-08-09T11:17:57.026Z,33.55
2022-08-09T11:21:05.919Z,32.57
2022-08-09T11:24:10.579Z,31.49
2022-08-09T11:28:03.789Z,31.02
2022-08-09T11:30:53.042Z,30.80
2022-08-09T11:34:04.756Z,31.99
2022-08-09T11:37:18.002Z,32.94
2022-08-09T11:40:30.495Z,33.21
2022-08-09T11:43:42.181Z,33.90
2022-08-09T11:46:57.051Z,33.50
2022-08-09T11:50:54.359Z,32.75
2022-08-09T11:53:58.774Z,33.05
2022-08-09T11:56:50.482Z,32.38
2022-08-09T11:59:53.804Z,32.66
2022-08-09T12:02:58.301Z,32.27
2022-08-09T12:06:10.508Z,31.63
2022-08-09T12:09:17.559Z,31.21
2022-08-09T12:12:29.035Z,31.46
2022-08-09T12:15:49.760Z,32.56
2022-08-09T12:18:54.694Z,32.76
2022-08-09T12:22:03.294Z,33.19
2022-08-09T12:25:14.897Z,32.81
2022-08-09T12:29:11.993Z,33.01
2022-08-09T12:32:01.859Z,33.20
2022-08-09T12:35:12.518Z,33.63
2022-08-09T12:38:37.683Z,33.63
2022-08-09T12:41:41.341Z,33.40
2022-08-09T12:44:52.418Z,33.27
2022-08-09T12:47:57.394Z,32.79
2022-08-09T12:51:03.989Z,32.33
2022-08-09T12:54:09.341Z,32.02
2022-08-09T12:57:12.030Z,31.76
2022-08-09T13:00:18.847Z,31.65
2022-08-09T13:03:53.665Z,31.19
2022-08-09T13:06:54.196Z,31.04
2022-08-09T13:10:04.201Z,31.58
2022-08-09T13:13:10.980Z,30.91
2022-08-09T13:16:17.588Z,31.31
2022-08-09T13:20:09.708Z,31.50
2022-08-09T13:23:05.739Z,31.75
2022-08-09T13:26:36.791Z,32.21
2022-08-09T13:30:02.589Z,32.22
2022-08-09T13:33:02.616Z,32.31
2022-08-09T13:36:24.080Z,31.95
2022-08-09T13:41:19.092Z,31.28
2022-08-09T13:42:55.127Z,31.27
2022-08-09T13:46:44.429Z,31.56
2022-08-09T13:49:20.602Z,31.85
2022-08-09T13:52:23.483Z,31.60
2022-08-09T13:55:28.937Z,31.01
2022-08-09T13:58:34.463Z,30.78
2022-08-09T14:02:00.467Z,30.52
2022-08-09T14:05:00.646Z,30.71
2022-08-09T14:08:05.293Z,30.69
2022-08-09T14:11:16.007Z,30.89
2022-08-09T14:14:26.819Z,30.43
2022-08-09T14:17:32.675Z,30.03
2022-08-09T14:20:53.777Z,30.24
2022-08-09T14:23:57.499Z,30.08
2022-08-09T14:27:01.240Z,29.97
2022-08-09T14:30:37.070Z,30.10
2022-08-09T14:33:29.846Z,30.30
2022-08-09T14:36:35.374Z,30.35
2022-08-09T14:39:46.438Z,30.13
2022-08-09T14:42:51.014Z,30.39
2022-08-09T14:46:59.034Z,30.53
2022-08-09T14:49:18.454Z,30.63
2022-08-09T14:52:26.220Z,30.60
2022-08-09T14:55:32.019Z,30.39
2022-08-09T14:58:37.750Z,30.35
2022-08-09T15:01:48.121Z,30.09
2022-08-09T15:04:52.258Z,30.24
2022-08-09T15:07:56.913Z,30.14
2022-08-09T15:11:07.028Z,29.83
2022-08-09T15:14:13.440Z,29.97
2022-08-09T15:17:17.862Z,29.95
2022-08-09T15:21:55.665Z,29.88
2022-08-09T15:24:02.954Z,30.02
2022-08-09T15:27:07.140Z,29.77
2022-08-09T15:31:00.670Z,29.65
2022-08-09T15:34:16.277Z,29.58
2022-08-09T15:37:04.199Z,29.27
2022-08-09T15:40:11.649Z,29.23
2022-08-09T15:43:14.914Z,29.27
2022-08-09T15:46:31.868Z,29.10
2022-08-09T15:49:38.803Z,28.75
2022-08-09T15:53:05.995Z,28.93
2022-08-09T15:56:23.393Z,28.99
2022-08-09T15:59:36.935Z,28.75
2022-08-09T16:02:40.439Z,28.61
2022-08-09T16:05:53.106Z,28.58
2022-08-09T16:09:01.135Z,28.48
2022-08-09T16:12:11.593Z,28.60
2022-08-09T16:16:11.517Z,28.52
2022-08-09T16:18:37.862Z,28.38
2022-08-09T16:21:51.993Z,28.51
2022-08-09T16:24:56.851Z,28.37
2022-08-09T16:28:02.197Z,28.29
2022-08-09T16:31:16.136Z,28.36
2022-08-09T16:34:19.082Z,28.29
2022-08-09T16:37:55.789Z,28.18
2022-08-09T16:40:50.630Z,27.99
2022-08-09T16:43:54.007Z,27.88
2022-08-09T16:47:04.209Z,27.69
2022-08-09T16:50:31.145Z,27.79
2022-08-09T16:53:51.367Z,27.76
2022-08-09T16:57:00.741Z,27.51
2022-08-09T17:00:03.663Z,27.43
2022-08-09T17:03:06.402Z,27.30
2022-08-09T17:06:28.896Z,27.32
2022-08-09T17:09:44.007Z,27.16
2022-08-09T17:12:49.781Z,27.10
2022-08-09T17:16:00.301Z,26.99
2022-08-09T17:19:05.334Z,26.93
2022-08-09T17:22:08.275Z,26.80
2022-08-09T17:25:13.718Z,26.66
2022-08-09T17:28:16.443Z,26.71
2022-08-09T17:31:21.295Z,26.59
2022-08-09T17:35:10.898Z,26.64
2022-08-09T17:38:14.410Z,26.45
2022-08-09T17:41:12.319Z,26.40
2022-08-09T17:44:41.667Z,26.32
2022-08-09T17:47:49.813Z,26.30
2022-08-09T17:51:06.528Z,26.24
2022-08-09T17:54:28.060Z,26.07
2022-08-09T17:58:02.883Z,26.11
2022-08-09T18:00:58.567Z,26.09
2022-08-09T18:04:01.519Z,26.00
2022-08-09T18:07:07.684Z,25.89
2022-08-09T18:10:11.696Z,25.78
2022-08-09T18:13:43.164Z,25.71
2022-08-09T18:16:39.398Z,25.72
2022-08-09T18:20:56.439Z,25.55
2022-08-09T18:24:10.418Z,25.45
2022-08-09T18:26:38.002Z,25.41
2022-08-09T18:30:38.509Z,25.41
2022-08-09T18:33:13.410Z,25.42
2022-08-09T18:36:32.173Z,25.25
2022-08-09T18:39:39.635Z,25.06
2022-08-09T18:42:46.783Z,24.99
2022-08-09T18:46:50.384Z,24.86
2022-08-09T18:49:16.427Z,24.89
2022-08-09T18:52:24.775Z,24.73
2022-08-09T18:55:56.265Z,24.67
2022-08-09T18:58:55.323Z,24.62
2022-08-09T19:02:00.316Z,24.48
2022-08-09T19:05:20.318Z,24.31
2022-08-09T19:08:32.114Z,24.17
2022-08-09T19:11:38.223Z,24.13
2022-08-09T19:14:43.320Z,24.10
2022-08-09T19:17:55.020Z,24.09
2022-08-09T19:21:00.587Z,24.01
2022-08-09T19:24:33.356Z,23.89
2022-08-09T19:27:28.747Z,23.85
2022-08-09T19:30:32.413Z,23.80
2022-08-09T19:33:37.445Z,23.68
2022-08-09T19:36:40.076Z,23.62
2022-08-09T19:40:03.732Z,23.57
2022-08-09T19:43:10.376Z,23.42
2022-08-09T19:46:34.973Z,23.31
2022-08-09T19:50:07.252Z,23.23
2022-08-09T19:53:04.568Z,23.14
2022-08-09T19:56:07.818Z,23.11
2022-08-09T19:59:57.779Z,23.14
2022-08-09T20:04:12.549Z,23.03
2022-08-09T20:06:22.690Z,22.92
2022-08-09T20:09:44.391Z,22.80
2022-08-09T20:12:49.059Z,22.74
2022-08-09T20:16:35.773Z,22.64
2022-08-09T20:19:47.649Z,22.62
2022-08-09T20:22:42.918Z,22.46
2022-08-09T20:25:52.540Z,22.58
2022-08-09T20:28:55.991Z,22.45
2022-08-09T20:32:28.624Z,22.34
2022-08-09T20:35:24.356Z,22.28
2022-08-09T20:38:48.401Z,22.27
2022-08-09T20:41:51.113Z,22.24
2022-08-09T20:45:04.745Z,22.10
2022-08-09T20:48:21.145Z,22.11
2022-08-09T20:51:25.021Z,22.00
2022-08-09T20:54:29.200Z,21.97
2022-08-09T20:57:32.903Z,22.05
2022-08-09T21:00:36.385Z,22.00
2022-08-09T21:05:48.606Z,21.95
2022-08-09T21:07:14.102Z,21.86
2022-08-09T21:10:18.526Z,21.96
2022-08-09T21:13:21.446Z,21.77
2022-08-09T21:16:28.229Z,21.76
2022-08-09T21:20:19.618Z,21.62
2022-08-09T21:22:56.149Z,21.58
2022-08-09T21:26:00.952Z,21.59
2022-08-09T21:29:11.960Z,21.58
2022-08-09T21:32:18.833Z,21.46
2022-08-09T21:35:22.072Z,21.40
2022-08-09T21:38:31.260Z,21.34
2022-08-09T21:42:04.351Z,21.29
2022-08-09T21:44:58.967Z,21.15
2022-08-09T21:48:02.436Z,21.14
2022-08-09T21:51:13.318Z,21.08
2022-08-09T21:54:17.338Z,21.05
2022-08-09T21:57:25.270Z,21.02
2022-08-09T22:00:42.691Z,20.90
2022-08-09T22:03:59.079Z,20.86
2022-08-09T22:07:04.823Z,20.83
2022-08-09T22:10:09.606Z,20.75
2022-08-09T22:13:14.144Z,20.71
2022-08-09T22:16:21.189Z,20.67
2022-08-09T22:19:58.675Z,20.61
2022-08-09T22:22:49.955Z,20.60
2022-08-09T22:26:07.643Z,20.58
2022-08-09T22:32:36.619Z,20.53
2022-08-09T22:36:02.229Z,20.42
2022-08-09T22:39:02.855Z,20.35
2022-08-09T22:42:22.564Z,20.31
2022-08-09T22:48:10.617Z,20.14
2022-08-09T22:48:51.970Z,20.17
2022-08-09T22:51:57.636Z,20.09
2022-08-09T22:55:00.334Z,20.10
2022-08-09T22:58:04.925Z,20.07
2022-08-09T23:01:09.122Z,19.97
2022-08-09T23:04:12.074Z,20.03
2022-08-09T23:08:21.820Z,19.89
2022-08-09T23:10:55.212Z,19.87
2022-08-09T23:13:59.584Z,19.83
2022-08-09T23:17:03.757Z,19.84
2022-08-09T23:20:08.416Z,19.83
2022-08-09T23:23:11.569Z,19.78
2022-08-09T23:26:14.180Z,19.75
2022-08-09T23:29:17.083Z,19.74
2022-08-09T23:32:21.076Z,19.74
2022-08-09T23:35:24.678Z,19.73
2022-08-09T23:38:27.345Z,19.65
2022-08-09T23:41:30.696Z,19.58
2022-08-09T23:44:33.567Z,19.52
2022-08-09T23:47:37.749Z,19.47
2022-08-09T23:50:40.531Z,19.42
2022-08-09T23:53:43.881Z,19.36
2022-08-09T23:56:54.591Z,19.36
